createdAt,value
2023-09-13T02:25:33.283Z,21.79
2023-09-13T02:30:41.548Z,22.35
2023-09-13T02:35:48.610Z,24.52
2023-09-13T02:40:52.774Z,24.85
2023-09-13T02:45:57.077Z,23.51
2023-09-13T02:51:02.676Z,22.64
2023-09-13T02:56:08.664Z,22.03
2023-09-13T03:01:14.211Z,21.54
2023-09-13T03:06:20.231Z,22.08
2023-09-13T03:11:27.425Z,24.24
2023-09-13T03:16:38.351Z,24.58
2023-09-13T03:21:46.491Z,23.23
2023-09-13T03:26:51.584Z,22.36
2023-09-13T03:31:57.516Z,21.76
2023-09-13T03:37:04.476Z,21.26
2023-09-13T03:42:09.749Z,21.81
2023-09-13T03:47:16.172Z,23.83
2023-09-13T03:52:22.170Z,24.09
2023-09-13T03:57:26.942Z,22.81
2023-09-13T04:02:32.611Z,21.98
2023-09-13T04:07:39.105Z,21.41
2023-09-13T04:12:43.971Z,21.90
2023-09-13T04:17:48.389Z,23.73
2023-09-13T04:22:53.842Z,23.97
2023-09-13T04:27:57.670Z,22.73
2023-09-13T04:33:04.064Z,21.94
2023-09-13T04:38:10.756Z,21.38
2023-09-13T04:43:14.321Z,20.95
2023-09-13T04:48:18.526Z,21.43
2023-09-13T04:53:23.343Z,23.42
2023-09-13T04:58:28.936Z,23.86
2023-09-13T05:03:38.079Z,22.67
2023-09-13T05:08:42.631Z,21.95
2023-09-13T05:13:51.673Z,21.51
2023-09-13T05:18:56.448Z,22.24
2023-09-13T05:24:03.310Z,24.68
2023-09-13T05:29:06.914Z,24.82
2023-09-13T05:34:10.823Z,23.48
2023-09-13T05:39:15.068Z,22.70
2023-09-13T05:44:31.561Z,22.18
2023-09-13T05:49:35.917Z,22.86
2023-09-13T05:54:40.359Z,25.21
2023-09-13T05:59:44.445Z,25.02
2023-09-13T06:04:51.415Z,23.76
2023-09-13T06:09:59.637Z,23.06
2023-09-13T06:15:04.894Z,22.57
2023-09-13T06:20:09.607Z,23.32
2023-09-13T06:25:15.376Z,25.71
2023-09-13T06:30:20.980Z,25.57
2023-09-13T06:35:25.651Z,24.39
2023-09-13T06:40:35.536Z,23.77
2023-09-13T06:46:01.388Z,23.37
2023-09-13T06:51:48.781Z,24.25
2023-09-13T06:56:40.975Z,26.56
2023-09-13T07:02:07.624Z,25.90
2023-09-13T07:07:16.002Z,24.94
2023-09-13T07:12:23.810Z,24.49
2023-09-13T07:17:33.238Z,24.15
2023-09-13T07:22:38.178Z,23.89
2023-09-13T07:27:44.569Z,23.73
2023-09-13T07:32:52.642Z,23.62
2023-09-13T07:37:59.367Z,23.56
2023-09-13T07:43:05.943Z,24.48
2023-09-13T07:48:09.654Z,26.23
2023-09-13T07:53:14.519Z,25.47
2023-09-13T07:58:18.314Z,25.03
2023-09-13T08:03:22.247Z,24.81
2023-09-13T08:08:28.182Z,24.68
2023-09-13T08:13:34.463Z,24.60
2023-09-13T08:18:40.105Z,24.58
2023-09-13T08:23:45.774Z,24.57
2023-09-13T08:28:53.229Z,24.60
2023-09-13T08:33:59.263Z,24.67
2023-09-13T08:39:03.417Z,24.75
2023-09-13T08:44:08.409Z,24.85
2023-09-13T08:49:11.930Z,24.95
2023-09-13T08:54:17.193Z,25.06
2023-09-13T09:18:03.750Z,25.80
2023-09-13T09:23:08.943Z,25.98
2023-09-13T09:28:12.295Z,26.14
2023-09-13T09:33:16.293Z,26.30
2023-09-13T09:38:26.008Z,26.44
2023-09-13T09:43:32.460Z,26.55
2023-09-13T09:48:38.481Z,26.67
2023-09-13T09:53:44.583Z,26.79
2023-09-13T09:58:49.207Z,26.93
2023-09-13T10:03:59.574Z,27.10
2023-09-13T10:09:06.185Z,27.31
2023-09-13T10:14:11.244Z,27.51
2023-09-13T10:19:15.859Z,27.72
2023-09-13T10:24:23.450Z,27.91
2023-09-13T10:29:55.226Z,28.07
2023-09-13T10:35:04.821Z,28.24
2023-09-13T10:40:30.193Z,28.39
2023-09-13T10:45:39.059Z,28.54
2023-09-13T10:50:43.395Z,28.64
2023-09-13T10:55:50.022Z,28.69
2023-09-13T11:00:56.961Z,28.72
2023-09-13T11:06:02.043Z,28.82
2023-09-13T11:11:20.286Z,28.92
2023-09-13T11:16:24.925Z,29.07
2023-09-13T11:22:02.209Z,29.25
2023-09-13T12:19:27.484Z,30.94
2023-09-13T12:24:32.762Z,31.01
2023-09-13T12:29:45.957Z,31.04
2023-09-13T12:34:50.043Z,31.05
2023-09-13T12:39:56.917Z,31.03
2023-09-13T12:45:03.873Z,31.09
2023-09-13T12:50:28.402Z,31.21
2023-09-13T12:55:39.569Z,31.42
2023-09-13T13:01:04.846Z,31.67
2023-09-13T13:06:09.725Z,31.84
2023-09-13T13:11:14.000Z,31.87
2023-09-13T13:16:34.984Z,31.77
2023-09-13T13:22:10.093Z,31.86
2023-09-13T13:27:20.475Z,32.02
2023-09-13T13:32:41.729Z,32.11
2023-09-13T13:37:49.017Z,32.23
2023-09-13T13:42:54.488Z,32.37
2023-09-13T13:48:00.423Z,32.44
2023-09-13T13:53:06.710Z,32.42
2023-09-13T13:58:12.856Z,32.31
2023-09-13T14:03:17.946Z,32.08
2023-09-13T14:08:25.060Z,31.82
2023-09-13T14:13:32.370Z,31.57
2023-09-13T14:18:37.579Z,31.32
2023-09-13T14:23:57.422Z,31.02
2023-09-13T14:29:01.948Z,30.75
2023-09-13T14:34:07.697Z,30.54
2023-09-13T14:39:14.283Z,30.35
2023-09-13T14:44:18.655Z,30.17
2023-09-13T14:49:35.891Z,30.01
2023-09-13T14:54:39.851Z,29.86
2023-09-13T14:59:44.417Z,29.74
2023-09-13T15:04:53.201Z,29.63
2023-09-13T15:09:57.980Z,29.54
2023-09-13T15:15:02.645Z,29.46
2023-09-13T15:20:09.564Z,29.38
2023-09-13T15:25:14.773Z,29.30
2023-09-13T15:30:23.073Z,29.24
2023-09-13T15:35:29.338Z,29.19
2023-09-13T15:40:33.769Z,29.12
2023-09-13T15:45:41.999Z,29.06
2023-09-13T15:50:47.293Z,28.99
2023-09-13T15:55:55.735Z,28.89
2023-09-13T16:01:00.500Z,28.81
2023-09-13T16:06:05.548Z,28.72
2023-09-13T16:11:10.312Z,28.65
2023-09-13T16:16:14.859Z,28.57
2023-09-13T16:21:20.854Z,28.45
2023-09-13T16:26:26.884Z,28.32
2023-09-13T16:31:31.106Z,28.18
2023-09-13T16:36:35.166Z,28.05
2023-09-13T16:41:44.181Z,27.92
2023-09-13T16:46:47.480Z,27.76
2023-09-13T16:51:52.122Z,27.61
2023-09-13T16:56:56.393Z,27.45
2023-09-13T17:02:01.820Z,27.28
2023-09-13T17:07:09.166Z,27.13
2023-09-13T17:12:13.960Z,27.00
2023-09-13T17:17:24.681Z,26.88
2023-09-13T17:22:28.656Z,26.77
2023-09-13T17:27:34.149Z,26.68
2023-09-13T17:32:39.759Z,26.59
2023-09-13T17:37:45.866Z,26.51
2023-09-13T17:42:50.753Z,26.43
2023-09-13T17:47:55.922Z,26.36
2023-09-13T17:53:00.827Z,26.29
2023-09-13T17:58:05.659Z,26.23
2023-09-13T18:03:10.127Z,26.21
2023-09-13T18:08:15.918Z,26.25
2023-09-13T18:13:21.589Z,26.30
2023-09-13T18:18:28.422Z,26.34
2023-09-13T18:23:36.908Z,26.40
2023-09-13T19:18:36.405Z,26.40
2023-09-13T19:23:45.756Z,26.30
2023-09-13T19:28:57.319Z,26.22
2023-09-13T19:34:03.707Z,26.13
2023-09-13T19:39:07.683Z,26.04
2023-09-13T19:44:12.185Z,25.95
2023-09-13T19:49:17.209Z,25.86
2023-09-13T19:54:23.136Z,25.79
2023-09-13T19:59:28.674Z,25.72
2023-09-13T20:04:34.966Z,25.68
2023-09-13T20:09:40.719Z,25.67
2023-09-13T20:14:45.963Z,25.66
2023-09-13T20:19:51.700Z,25.63
2023-09-13T20:24:58.047Z,25.61
2023-09-13T20:30:03.917Z,25.55
2023-09-13T20:35:08.061Z,25.51
2023-09-13T20:40:13.231Z,25.44
2023-09-13T20:45:17.377Z,25.39
2023-09-13T20:50:21.097Z,25.33
2023-09-13T20:55:26.120Z,25.26
2023-09-13T21:00:31.835Z,25.20
2023-09-13T21:05:36.487Z,25.16
2023-09-13T21:10:41.038Z,25.07
2023-09-13T21:15:54.676Z,24.99
2023-09-13T21:21:00.143Z,24.89
2023-09-13T21:26:03.773Z,24.83
2023-09-13T21:31:08.641Z,24.76
2023-09-13T21:36:14.869Z,24.67
2023-09-13T21:41:19.486Z,24.63
2023-09-13T21:46:22.804Z,24.54
2023-09-13T21:51:42.392Z,24.48
2023-09-13T21:56:47.053Z,24.40
2023-09-13T22:01:54.585Z,24.34
2023-09-13T22:09:21.831Z,24.24
2023-09-13T22:14:27.284Z,24.18
2023-09-13T22:19:32.607Z,24.14
2023-09-13T22:24:38.785Z,24.08
2023-09-13T22:29:49.249Z,24.02
2023-09-13T22:34:56.388Z,23.99
2023-09-13T22:40:03.489Z,23.95
2023-09-13T22:45:06.893Z,23.92
2023-09-13T22:50:11.339Z,23.87
2023-09-13T22:55:15.915Z,23.83
2023-09-13T23:00:21.490Z,23.81
2023-09-13T23:05:26.263Z,23.76
2023-09-13T23:10:30.595Z,23.65
2023-09-13T23:15:34.891Z,23.56
2023-09-13T23:20:40.557Z,23.47
2023-09-13T23:26:11.256Z,23.39
2023-09-13T23:31:22.758Z,23.31
2023-09-13T23:36:29.667Z,23.23
2023-09-13T23:41:33.518Z,23.18
2023-09-13T23:46:40.824Z,23.13
2023-09-13T23:51:44.407Z,23.08
2023-09-13T23:56:50.158Z,24.02
